[000:023] [2025-10-11 15:52:38 +0000.
691437][24bd] Log to
file:/storage/emulated/0/voip-data/[Link]/[Link] start time:2025-10-
11 15:52:38 +0000
[000:023] [2025-10-11 15:52:38 +0000.691503][24bd] set AppID=50011 old AppID=-1
[000:023] [2025-10-11 15:52:38 +0000.691517][24bd] Init the android object with
jvm:0xb400007876c47180 env:0x77a1e68e60 context:0x773c0a28e8
[000:023] [2025-10-11 15:52:38 +0000.691565][24bd] SetAndroidMediaCodecObjects
time:35064718 enter.
[000:023] [2025-10-11 15:52:38 +0000.691590][24bd] SetAndroidMediaCodecObjects
leave. expire time = 0 ms
[000:023] [2025-10-11 15:52:38 +0000.691623][24bd] SetAndroidMediaCodecObjects
time:35064718 enter.
[000:023] [2025-10-11 15:52:38 +0000.691636][24bd] SetAndroidMediaCodecObjects:
SetAndroidMediaCodecObjects:: jvm :0xb400007876c47180
[000:023] [2025-10-11 15:52:38 +0000.691674][24bd] SetAndroidMediaCodecObjects:
SetAndroidMediaCodecObjects success g_jvm_:0xb400007876c47180 address:0x76aa760760
[000:023] [2025-10-11 15:52:38 +0000.691685][24bd] SetAndroidMediaCodecObjects:
SetAndroidMediaCodecObjects success g_jvm_encoder_:0xb400007876c47180
address:0x76aa760760
[000:023] [2025-10-11 15:52:38 +0000.691716][24bd] SetAndroidMediaCodecObjects
leave. expire time = 0 ms
[000:023] [2025-10-11 15:52:38 +0000.691728][24bd] Set the android objects with
jvm:0xb400007876c47180 env:0x77a1e68e60 context:0x773c0a28e8
[000:023] [2025-10-11 15:52:38 +0000.691774][24bd] audio jni debug :manager
SetAndroidAudioDeviceObjects env:0x77a1e68e60
[000:023] [2025-10-11 15:52:38 +0000.691787][24bd] SystemUtil Init done
[000:026] [2025-10-11 15:52:38 +0000.694839][24bd]
Java_com_xiaomi_recordmediaprocess_MediaEffectCamera_ConstructMediaEffectCameraJni:
[000:026] [2025-10-11 15:52:38 +0000.694993][24bd] MediaFilterCamera
[000:026] [2025-10-11 15:52:38 +0000.695040][24bd] RecordingSessionInternalSimple:
Create session internal:720 X 1280 fps:30
[000:026] [2025-10-11 15:52:38 +0000.695156][24bd] createSessionInternal: create
session with video size:720 X 1280 fps:30 bitrate:31457280
[000:026] [2025-10-11 15:52:38 +0000.695186][24bd] Recording session using default
bitrate support by app:31457280
[000:027] [2025-10-11 15:52:38 +0000.695422][30e9] Error([Link]): Set the
pthread name failed with error:34 name:Thread 0x0x77b39160c0
[000:027] [2025-10-11 15:52:38 +0000.695503][30e9] setAudioChannelCount_w:
RecordingSessionInternalSimple:set the audio channel count:2
[000:027] [2025-10-11 15:52:38 +0000.695656][24bd] setAudioSampleRate:
RecordingSessionInternalSimple:set the audio bitrate:44100
[000:028] [2025-10-11 15:52:38 +0000.696556][24bd] Error([Link]): Open the file
failed. error:2
[000:028] [2025-10-11 15:52:38 +0000.696597][24bd]
Error(key_value_pair_store.cc:130): load the data failed from: voip_config.ini
[000:028] [2025-10-11 15:52:38 +0000.696611][24bd] The device model: m2102j20sg
usingSoftwareAEC value: 0
[000:030] [2025-10-11 15:52:38 +0000.698703][24bd] Error([Link]): Open the file
failed. error:2
[000:030] [2025-10-11 15:52:38 +0000.698764][24bd]
Error(key_value_pair_store.cc:130): load the data failed from:
/storage/emulated/0/voip-data/[Link]/voip_config.ini
[000:030] [2025-10-11 15:52:38 +0000.698809][24bd] The device model: m2102j20sg
usingHardwareAEC value: 0
[000:030] [2025-10-11 15:52:38 +0000.698834][24bd] The machine device: m2102j20sg
usingHardwareAEC value: 0
[000:030] [2025-10-11 15:52:38 +0000.698864][24bd] Using Default AEC type: software
AEC
[000:031] [2025-10-11 15:52:38 +0000.699798][24bd] The device model: m2102j20sg
enum value: 0
[000:031] [2025-10-11 15:52:38 +0000.700182][24bd] GetMachineModel is M2102J20SG
[000:031] [2025-10-11 15:52:38 +0000.700221][24bd] GetMachineInfo: M2102J20SG
[000:031] [2025-10-11 15:52:38 +0000.700246][24bd] Construct BeautifyReader
begin...
[000:031] [2025-10-11 15:52:38 +0000.700279][24bd] dumpStickerRgba:0
dumpStickerYuv:0
[000:031] [2025-10-11 15:52:38 +0000.700294][24bd] Construct BeautifyReader done.
[000:037] [2025-10-11 15:52:38 +0000.705472][24bd] Error([Link]): Open the file
failed. error:2
[000:037] [2025-10-11 15:52:38 +0000.705569][24bd]
Error(key_value_pair_store.cc:130): load the data failed from:
/storage/emulated/0/voip-data/[Link]/support_resolution.txt
[000:037] [2025-10-11 15:52:38 +0000.705655][24bd] AppDeviceManagerStartCamera::The
result of start thread is: 1 micOn:0
[000:037] [2025-10-11 15:52:38 +0000.705677][24bd] AppDeviceManager telnet server
for statistics started......
[000:037] [2025-10-11 15:52:38 +0000.705689][30ec] Error([Link]): Set the
pthread name failed with error:34 name:Thread 0x0x76dfb10aa0
[000:037] [2025-10-11 15:52:38 +0000.705977][24bd] CpuOverloadDetect time:35064732
enter.
[000:037] [2025-10-11 15:52:38 +0000.706053][24bd] CpuOverloadDetect leave. expire
time = 0 ms
[000:038] [2025-10-11 15:52:38 +0000.706564][24bd] AppDeviceMana
GetOpenslVoiceMode before get setting: 1
[000:038] [2025-10-11 15:52:38 +0000.706595][24bd] AppDeviceMana
GetOpenslVoiceMode after get setting: 1
[000:038] [2025-10-11 15:52:38 +0000.706863][30ed] Error([Link]): Set the
pthread name failed with error:34 name:Thread 0x0x76c5985440
[000:042] [2025-10-11 15:52:38 +0000.710545][24bd] AudioManagerAndroid
getProperty:[Link].OUTPUT_SAMPLE_RATE
[000:042] [2025-10-11 15:52:38 +0000.710895][24bd] AudioManagerAndroid
getProperty:[Link].OUTPUT_FRAMES_PER_BUFFER
[000:042] [2025-10-11 15:52:38 +0000.711243][24bd] CreatePlatformSpecificObjects:
[000:042] [2025-10-11 15:52:38 +0000.711292][24bd] audio device use opensle input
and opensl output
[000:042] [2025-10-11 15:52:38 +0000.711325][24bd] Create OpenSLES output module
with java VM support.
[000:043] [2025-10-11 15:52:38 +0000.711441][24bd] AudioManagerAndroid
getProperty:[Link].OUTPUT_SAMPLE_RATE
[000:043] [2025-10-11 15:52:38 +0000.711628][24bd] AudioManagerAndroid
getProperty:[Link].OUTPUT_FRAMES_PER_BUFFER
[000:043] [2025-10-11 15:52:38 +0000.711784][24bd] Create OpenSLES output module
with buffer num:1
[000:043] [2025-10-11 15:52:38 +0000.711927][24bd] AudioManagerAndroid
getProperty:[Link].OUTPUT_SAMPLE_RATE
[000:043] [2025-10-11 15:52:38 +0000.712096][24bd] AudioManagerAndroid
getProperty:[Link].OUTPUT_FRAMES_PER_BUFFER
[000:043] [2025-10-11 15:52:38 +0000.712234][24bd] Create OpenSLES input module
with java VM support.
[000:043] [2025-10-11 15:52:38 +0000.712271][24bd] Create OpenSLES input module
with buffer num:1
[000:043] [2025-10-11 15:52:38 +0000.712324][24bd] Error([Link]): Init the
output and input for audio device template.
[000:044] [2025-10-11 15:52:38 +0000.712347][24bd] Init the output device.
[000:044] [2025-10-11 15:52:38 +0000.712378][24bd] Init the opensl input.
[000:044] [2025-10-11 15:52:38 +0000.712409][24bd] AppDeviceManager get setting
samplerate: 0
[000:044] [2025-10-11 15:52:38 +0000.712733][24bd] The device model: m2102j20sg
enum value: 0
[000:044] [2025-10-11 15:52:38 +0000.713164][24bd] The device model: m2102j20sg
enum value: 0
[000:044] [2025-10-11 15:52:38 +0000.713208][24bd] Set the sample rate to be:48000
[000:044] [2025-10-11 15:52:38 +0000.713236][24bd] Enable the recording stereo:0
[000:044] [2025-10-11 15:52:38 +0000.713267][24bd] Set the playout as stereo:1
[000:044] [2025-10-11 15:52:38 +0000.713293][24bd] Init the microphone.
[000:048] [2025-10-11 15:52:38 +0000.716710][24bd] Update the recording sample rate
to be: 48000
[000:048] [2025-10-11 15:52:38 +0000.716776][24bd] Init the speaker.
[000:048] [2025-10-11 15:52:38 +0000.716811][24bd] Low latency buffer size:144 low
sample rate:48000
[000:048] [2025-10-11 15:52:38 +0000.717046][24bd] Using 1 x 10ms for an audio
frame.
[000:051] [2025-10-11 15:52:38 +0000.719929][24bd] Error(splitting_filter.cc:26):
Splitting filter only support two or three bands now.
[000:051] [2025-10-11 15:52:38 +0000.720011][24bd] Error(splitting_filter.cc:26):
Splitting filter only support two or three bands now.
[000:051] [2025-10-11 15:52:38 +0000.720062][24bd] Error(splitting_filter.cc:26):
Splitting filter only support two or three bands now.
[000:055] [2025-10-11 15:52:38 +0000.724189][24bd] The device model:m2102j20sg
[000:055] [2025-10-11 15:52:38 +0000.724250][24bd] speaker output factor:100
defaultFactor: 100
[000:055] [2025-10-11 15:52:38 +0000.724266][24bd] headset output factor:100
defaultFactor: 100
[000:056] [2025-10-11 15:52:38 +0000.724568][24bd] AppDeviceManagerStart finished.
[000:056] [2025-10-11 15:52:38 +0000.724602][24bd] AppDeviceManagerStartMic::mic
status is off
[000:056] [2025-10-11 15:52:38 +0000.724664][24bd] AppDeviceManagerStartMic update
aec type: 2
[000:056] [2025-10-11 15:52:38 +0000.724684][24bd] AppDeviceManagerStartMic update
voiceChangeMode: 4
[000:056] [2025-10-11 15:52:38 +0000.724698][24bd]
AudioDeviceDataHandler::setVoiceChangeMode, mode : 4
[000:056] [2025-10-11 15:52:38 +0000.724720][24bd]
AudioDeviceDataHandler::StartMicProcess
[000:056] [2025-10-11 15:52:38 +0000.724809][24bd] Try to start webrtc recording
device.
[000:056] [2025-10-11 15:52:38 +0000.724835][24bd] StartRecording. threadID:9405
[000:056] [2025-10-11 15:52:38 +0000.724839][30ee] Error([Link]): Set the
pthread name failed with error:34 name:AudioDeviceDataHandler gapProcessThread
[000:056] [2025-10-11 15:52:38 +0000.724907][30ee] haveEnoughProcessedData
[Link]: 0
[000:056] [2025-10-11 15:52:38 +0000.725096][24bd] The machine model:M2102J20SG
[000:056] [2025-10-11 15:52:38 +0000.725141][24bd] default mode: Set the recording
mode to voice communication to enable HW AEC .
[000:056] [2025-10-11 15:52:38 +0000.725164][24bd] Set the recording mode before
getSetting: 4
[000:056] [2025-10-11 15:52:38 +0000.725197][24bd] Set the recording mode after
getSetting: 1
[000:098] [2025-10-11 15:52:38 +0000.766799][24bd] StartRecording finished.
[000:098] [2025-10-11 15:52:38 +0000.766889][24bd] audio: start the audio mic
checker timer.
[000:098] [2025-10-11 15:52:38 +0000.767316][24bd] machine model :poco
[000:099] [2025-10-11 15:52:38 +0000.767351][24bd] Support this machine model :poco
[000:099] [2025-10-11 15:52:38 +0000.767462][24bd] global inited! current sdk
version: 07-20-936c45f
[000:165] [2025-10-11 15:52:38 +0000.833593][30ef] webrtc device:Handle the data
from samplesPerSec recording sample rate:48000 nSamples:480 nBytesPerSample:#
nChannels:#
[000:165] [2025-10-11 15:52:38 +0000.833657][30ef] _deviceSampleRate:48000
[000:168] [2025-10-11 15:52:38 +0000.837057][30ee] Run AGC when audioType = 0
[000:168] [2025-10-11 15:52:38 +0000.837152][30ee]
AudioDeviceDataHandler::MixAndSendOutFrame
[001:800] [2025-10-11 15:52:40 +0000.468951][30ee] haveEnoughProcessedData
[Link]: 0
[002:166] [2025-10-11 15:52:40 +0000.835247][30ee] Run AGC when audioType = 0
[003:531] [2025-10-11 15:52:42 +0000.199430][30ee] haveEnoughProcessedData
[Link]: 0
[004:102] [2025-10-11 15:52:42 +0000.770877][30e5]
monitorTime:4004totalDuration:3940
[004:170] [2025-10-11 15:52:42 +0000.839341][30ee] Run AGC when audioType = 0
[004:171] [2025-10-11 15:52:42 +0000.839575][30ee]
AudioDeviceDataHandler::MixAndSendOutFrame
[005:247] [2025-10-11 15:52:43 +0000.915673][30ee] haveEnoughProcessedData
[Link]: 20
[006:168] [2025-10-11 15:52:44 +0000.836435][30ee] Run AGC when audioType = 0
[006:948] [2025-10-11 15:52:45 +0000.617117][30ee] haveEnoughProcessedData
[Link]: 0
[008:167] [2025-10-11 15:52:46 +0000.835752][30ee] Run AGC when audioType = 0
[008:167] [2025-10-11 15:52:46 +0000.835995][30ee]
AudioDeviceDataHandler::MixAndSendOutFrame
[008:658] [2025-10-11 15:52:47 +0000.326812][30ee] haveEnoughProcessedData
[Link]: 0
[010:166] [2025-10-11 15:52:48 +0000.834407][30ef] webrtc device:Handle the data
from samplesPerSec recording sample rate:48000 nSamples:480 nBytesPerSample:#
nChannels:#
[010:166] [2025-10-11 15:52:48 +0000.834619][30ef] _deviceSampleRate:48000
[010:166] [2025-10-11 15:52:48 +0000.835083][30ee] Run AGC when audioType = 0
[010:368] [2025-10-11 15:52:49 +0000.36993][30ee] haveEnoughProcessedData
[Link]: 10
[012:074] [2025-10-11 15:52:50 +0000.742446][30ee] haveEnoughProcessedData
[Link]: 0
[012:167] [2025-10-11 15:52:50 +0000.835412][30ee] Run AGC when audioType = 0
[012:167] [2025-10-11 15:52:50 +0000.835613][30ee]
AudioDeviceDataHandler::MixAndSendOutFrame
[013:788] [2025-10-11 15:52:52 +0000.457290][30ee] haveEnoughProcessedData
[Link]: 20
[014:168] [2025-10-11 15:52:52 +0000.836985][30ee] Run AGC when audioType = 0
[015:490] [2025-10-11 15:52:54 +0000.159244][30ee] haveEnoughProcessedData
[Link]: 0
[016:166] [2025-10-11 15:52:54 +0000.834866][30ee] Run AGC when audioType = 0
[016:166] [2025-10-11 15:52:54 +0000.835117][30ee]
AudioDeviceDataHandler::MixAndSendOutFrame
[017:207] [2025-10-11 15:52:55 +0000.875532][30ee] haveEnoughProcessedData
[Link]: 20
[018:168] [2025-10-11 15:52:56 +0000.837329][30ee] Run AGC when audioType = 0
[018:915] [2025-10-11 15:52:57 +0000.583974][30ee] haveEnoughProcessedData
[Link]: 0
[018:990] [2025-10-11 15:52:57 +0000.659062][24bd]
Java_com_xiaomi_recordmediaprocess_MediaEffectCamera_DestructMediaEffectCameraJni:
[018:990] [2025-10-11 15:52:57 +0000.659213][24bd] ~MediaFilterCamera time:35083685
enter.
[018:990] [2025-10-11 15:52:57 +0000.659255][24bd] StopPullFrameAndWriteMp4
time:35083685 enter.
[018:991] [2025-10-11 15:52:57 +0000.660157][30e9] stop recording
[018:991] [2025-10-11 15:52:57 +0000.660200][30e9] we have stopped recording before
[018:992] [2025-10-11 15:52:57 +0000.660422][24bd] StopPullFrameAndWriteMp4 leave.
expire time = 2 ms
[018:992] [2025-10-11 15:52:57 +0000.660846][24bd] DestroyPipelineAndFilters
time:35083687 enter.
[018:992] [2025-10-11 15:52:57 +0000.660910][24bd] DestroyPipelineAndFilters
leave. expire time = 0 ms
[018:992] [2025-10-11 15:52:57 +0000.660947][24bd] AppDeviceManagerStopMic
[018:992] [2025-10-11 15:52:57 +0000.661013][24bd] AppDeviceManagerStopMic::mic
status is on
[018:992] [2025-10-11 15:52:57 +0000.661045][24bd] Try to stop webrtc device.
[018:992] [2025-10-11 15:52:57 +0000.661077][24bd] Set record state to
[Link]
[019:044] [2025-10-11 15:52:57 +0000.712475][24bd] Try to destory the
[Link]
[019:272] [2025-10-11 15:52:57 +0000.941333][24bd] DestroyAudioRecorder:
[019:273] [2025-10-11 15:52:57 +0000.941534][24bd] Cleanup the buffer queue in the
recorder.
[019:273] [2025-10-11 15:52:57 +0000.941604][24bd] Destroy the recorder.
[019:276] [2025-10-11 15:52:57 +0000.944774][24bd] StopRecording finished.
[019:276] [2025-10-11 15:52:57 +0000.944900][24bd] The stop recording success.
[019:276] [2025-10-11 15:52:57 +0000.944959][24bd]
AudioDeviceDataHandler::StopMicProcess
[019:280] [2025-10-11 15:52:57 +0000.949027][24bd] AppDeviceManager stop.
[019:280] [2025-10-11 15:52:57 +0000.949171][24bd] Rlease the webrtc device object.
[019:281] [2025-10-11 15:52:57 +0000.950136][24bd] OpenSlesInput destruct.
[019:281] [2025-10-11 15:52:57 +0000.950310][24bd] OpenSlesOutput destruct.
[019:283] [2025-10-11 15:52:57 +0000.952008][24bd] EventDispatchServerScope
destruct
[019:283] [2025-10-11 15:52:57 +0000.952092][24bd]
Warning([Link]): PhysicalSocketServer destruct
[019:283] [2025-10-11 15:52:57 +0000.952197][24bd] ~AudioDeviceDataHandler
[019:285] [2025-10-11 15:52:57 +0000.953654][24bd] AppDeviceManagerDestruct.
[019:285] [2025-10-11 15:52:57 +0000.953769][24bd] ~AppDeviceManager:
[019:285] [2025-10-11 15:52:57 +0000.953947][24bd] ~CpuOverloadDetect time:35083980
enter.
[019:286] [2025-10-11 15:52:57 +0000.954868][24bd] ~CpuOverloadDetect leave.
expire time = 1 ms
[019:307] [2025-10-11 15:52:57 +0000.975603][24bd] Destruct BeautifyReader begin...
[019:307] [2025-10-11 15:52:57 +0000.975728][24bd] Destruct BeautifyReader done.
[019:307] [2025-10-11 15:52:57 +0000.975799][24bd] ~MediaFilterCamera leave.
expire time = 317 ms
[019:307] [2025-10-11 15:52:57 +0000.976132][24bd] ~RecordingSessionInternalSimple:
RecordingSessionInternalSimple::~RecordingSessionInternalSimple
[0[000:021] [2025-10-12 14:06:44 +0000.765898][5b6] Log to
file:/storage/emulated/0/voip-data/[Link]/[Link] start time:2025-10-
12 14:06:44 +0000
[000:021] [2025-10-12 14:06:44 +0000.765942][5b6] set AppID=50011 old AppID=-1
[000:021] [2025-10-12 14:06:44 +0000.765972][5b6] Init the android object with
jvm:0xb400007876c47180 env:0x77a1e631e0 context:0x77372fa8e8
[000:021] [2025-10-12 14:06:44 +0000.766001][5b6] SetAndroidMediaCodecObjects
time:62345129 enter.
[000:021] [2025-10-12 14:06:44 +0000.766030][5b6] SetAndroidMediaCodecObjects
leave. expire time = 0 ms
[000:022] [2025-10-12 14:06:44 +0000.766134][5b6] SetAndroidMediaCodecObjects
time:62345130 enter.
[000:022] [2025-10-12 14:06:44 +0000.766151][5b6] SetAndroidMediaCodecObjects:
SetAndroidMediaCodecObjects:: jvm :0xb400007876c47180
[000:022] [2025-10-12 14:06:44 +0000.766189][5b6] SetAndroidMediaCodecObjects:
SetAndroidMediaCodecObjects success g_jvm_:0xb400007876c47180 address:0x769c46b760
[000:022] [2025-10-12 14:06:44 +0000.766233][5b6] SetAndroidMediaCodecObjects:
SetAndroidMediaCodecObjects success g_jvm_encoder_:0xb400007876c47180
address:0x769c46b760
[000:022] [2025-10-12 14:06:44 +0000.766264][5b6] SetAndroidMediaCodecObjects
leave. expire time = 0 ms
[000:022] [2025-10-12 14:06:44 +0000.766289][5b6] Set the android objects with
jvm:0xb400007876c47180 env:0x77a1e631e0 context:0x77372fa8e8
[000:023] [2025-10-12 14:06:44 +0000.767500][5b6] audio jni debug :manager
SetAndroidAudioDeviceObjects env:0x77a1e631e0
[000:023] [2025-10-12 14:06:44 +0000.767529][5b6] SystemUtil Init done
[000:023] [2025-10-12 14:06:44 +0000.767988][5b6]
Java_com_xiaomi_recordmediaprocess_MediaEffectCamera_ConstructMediaEffectCameraJni:
[000:024] [2025-10-12 14:06:44 +0000.768773][5b6] MediaFilterCamera
[000:024] [2025-10-12 14:06:44 +0000.768817][5b6] RecordingSessionInternalSimple:
Create session internal:720 X 1280 fps:30
[000:024] [2025-10-12 14:06:44 +0000.768911][5b6] createSessionInternal: create
session with video size:720 X 1280 fps:30 bitrate:31457280
[000:024] [2025-10-12 14:06:44 +0000.768941][5b6] Recording session using default
bitrate support by app:31457280
[000:024] [2025-10-12 14:06:44 +0000.768940][e8f] Error([Link]): Set the
pthread name failed with error:34 name:Thread 0x0x76e9da03c0
[000:025] [2025-10-12 14:06:44 +0000.769154][e8f] setAudioChannelCount_w:
RecordingSessionInternalSimple:set the audio channel count:2
[000:025] [2025-10-12 14:06:44 +0000.769209][5b6] setAudioSampleRate:
RecordingSessionInternalSimple:set the audio bitrate:44100
[000:025] [2025-10-12 14:06:44 +0000.769868][5b6] Error([Link]): Open the file
failed. error:2
[000:025] [2025-10-12 14:06:44 +0000.769898][5b6]
Error(key_value_pair_store.cc:130): load the data failed from: voip_config.ini
[000:025] [2025-10-12 14:06:44 +0000.769926][5b6] The device model: m2102j20sg
usingSoftwareAEC value: 0
[000:027] [2025-10-12 14:06:44 +0000.771694][5b6] Error([Link]): Open the file
failed. error:2
[000:027] [2025-10-12 14:06:44 +0000.771744][5b6]
Error(key_value_pair_store.cc:130): load the data failed from:
/storage/emulated/0/voip-data/[Link]/voip_config.ini
[000:027] [2025-10-12 14:06:44 +0000.771765][5b6] The device model: m2102j20sg
usingHardwareAEC value: 0
[000:027] [2025-10-12 14:06:44 +0000.771805][5b6] The machine device: m2102j20sg
usingHardwareAEC value: 0
[000:027] [2025-10-12 14:06:44 +0000.771820][5b6] Using Default AEC type: software
AEC
[000:028] [2025-10-12 14:06:44 +0000.772721][5b6] The device model: m2102j20sg enum
value: 0
[000:029] [2025-10-12 14:06:44 +0000.773080][5b6] GetMachineModel is M2102J20SG
[000:029] [2025-10-12 14:06:44 +0000.773115][5b6] GetMachineInfo: M2102J20SG
[000:029] [2025-10-12 14:06:44 +0000.773140][5b6] Construct BeautifyReader begin...
[000:029] [2025-10-12 14:06:44 +0000.773160][5b6] dumpStickerRgba:0
dumpStickerYuv:0
[000:029] [2025-10-12 14:06:44 +0000.773174][5b6] Construct BeautifyReader done.
[000:033] [2025-10-12 14:06:44 +0000.777826][5b6] AppDeviceManagerStartCamera::The
result of start thread is: 1 micOn:0
[000:033] [2025-10-12 14:06:44 +0000.777850][e93] Error([Link]): Set the
pthread name failed with error:34 name:Thread 0x0x7731d2bca0
[000:033] [2025-10-12 14:06:44 +0000.777927][5b6] AppDeviceManager telnet server
for statistics started......
[000:034] [2025-10-12 14:06:44 +0000.778315][5b6] CpuOverloadDetect time:62345142
enter.
[000:034] [2025-10-12 14:06:44 +0000.778407][5b6] CpuOverloadDetect leave. expire
time = 0 ms
[000:034] [2025-10-12 14:06:44 +0000.778422][e94] Error([Link]): Set the
pthread name failed with error:34 name:Thread 0x0x76cdc26100
[000:034] [2025-10-12 14:06:44 +0000.778939][5b6] AppDeviceMana GetOpenslVoiceMode
before get setting: 1
[000:034] [2025-10-12 14:06:44 +0000.778966][5b6] AppDeviceMana GetOpenslVoiceMode
after get setting: 1
[000:036] [2025-10-12 14:06:44 +0000.780142][5b6] AudioManagerAndroid
getProperty:[Link].OUTPUT_SAMPLE_RATE
[000:036] [2025-10-12 14:06:44 +0000.780416][5b6] AudioManagerAndroid
getProperty:[Link].OUTPUT_FRAMES_PER_BUFFER
[000:036] [2025-10-12 14:06:44 +0000.780715][5b6] CreatePlatformSpecificObjects:
[000:036] [2025-10-12 14:06:44 +0000.780744][5b6] audio device use opensle input
and opensl output
[000:036] [2025-10-12 14:06:44 +0000.780786][5b6] Create OpenSLES output module
with java VM support.
[000:036] [2025-10-12 14:06:44 +0000.780844][5b6] AudioManagerAndroid
getProperty:[Link].OUTPUT_SAMPLE_RATE
[000:036] [2025-10-12 14:06:44 +0000.780942][5b6] AudioManagerAndroid
getProperty:[Link].OUTPUT_FRAMES_PER_BUFFER
[000:037] [2025-10-12 14:06:44 +0000.781043][5b6] Create OpenSLES output module
with buffer num:1
[000:037] [2025-10-12 14:06:44 +0000.781125][5b6] AudioManagerAndroid
getProperty:[Link].OUTPUT_SAMPLE_RATE
[000:037] [2025-10-12 14:06:44 +0000.781212][5b6] AudioManagerAndroid
getProperty:[Link].OUTPUT_FRAMES_PER_BUFFER
[000:037] [2025-10-12 14:06:44 +0000.781307][5b6] Create OpenSLES input module with
java VM support.
[000:037] [2025-10-12 14:06:44 +0000.781335][5b6] Create OpenSLES input module with
buffer num:1
[000:037] [2025-10-12 14:06:44 +0000.781395][5b6] Error([Link]): Init the
output and input for audio device template.
[000:037] [2025-10-12 14:06:44 +0000.781417][5b6] Init the output device.
[000:037] [2025-10-12 14:06:44 +0000.781427][5b6] Init the opensl input.
[000:037] [2025-10-12 14:06:44 +0000.781454][5b6] AppDeviceManager get setting
samplerate: 0
[000:037] [2025-10-12 14:06:44 +0000.781700][5b6] The device model: m2102j20sg enum
value: 0
[000:037] [2025-10-12 14:06:44 +0000.782036][5b6] The device model: m2102j20sg enum
value: 0
[000:038] [2025-10-12 14:06:44 +0000.782058][5b6] Set the sample rate to be:48000
[000:038] [2025-10-12 14:06:44 +0000.782070][5b6] Enable the recording stereo:0
[000:038] [2025-10-12 14:06:44 +0000.782091][5b6] Set the playout as stereo:1
[000:038] [2025-10-12 14:06:44 +0000.782117][5b6] Init the microphone.
[000:040] [2025-10-12 14:06:44 +0000.784424][5b6] Update the recording sample rate
to be: 48000
[000:040] [2025-10-12 14:06:44 +0000.784464][5b6] Init the speaker.
[000:040] [2025-10-12 14:06:44 +0000.784483][5b6] Low latency buffer size:144 low
sample rate:48000
[000:040] [2025-10-12 14:06:44 +0000.784716][5b6] Using 1 x 10ms for an audio
frame.
[000:043] [2025-10-12 14:06:44 +0000.787591][5b6] Error(splitting_filter.cc:26):
Splitting filter only support two or three bands now.
[000:043] [2025-10-12 14:06:44 +0000.787660][5b6] Error(splitting_filter.cc:26):
Splitting filter only support two or three bands now.
[000:043] [2025-10-12 14:06:44 +0000.787699][5b6] Error(splitting_filter.cc:26):
Splitting filter only support two or three bands now.
[000:047] [2025-10-12 14:06:44 +0000.791484][5b6] The device model:m2102j20sg
[000:047] [2025-10-12 14:06:44 +0000.791538][5b6] speaker output factor:100
defaultFactor: 100
[000:047] [2025-10-12 14:06:44 +0000.791551][5b6] headset output factor:100
defaultFactor: 100
[000:047] [2025-10-12 14:06:44 +0000.791799][5b6] AppDeviceManagerStart finished.
[000:047] [2025-10-12 14:06:44 +0000.791854][5b6] AppDeviceManagerStartMic::mic
status is off
[000:047] [2025-10-12 14:06:44 +0000.791895][5b6] AppDeviceManagerStartMic update
aec type: 2
[000:047] [2025-10-12 14:06:44 +0000.791912][5b6] AppDeviceManagerStartMic update
voiceChangeMode: 4
[000:047] [2025-10-12 14:06:44 +0000.791922][5b6]
AudioDeviceDataHandler::setVoiceChangeMode, mode : 4
[000:047] [2025-10-12 14:06:44 +0000.791946][5b6]
AudioDeviceDataHandler::StartMicProcess
[000:047] [2025-10-12 14:06:44 +0000.792011][5b6] Try to start webrtc recording
device.
[000:047] [2025-10-12 14:06:44 +0000.792031][5b6] StartRecording. threadID:1462
[000:047] [2025-10-12 14:06:44 +0000.792040][e95] Error([Link]): Set the
pthread name failed with error:34 name:AudioDeviceDataHandler gapProcessThread
[000:048] [2025-10-12 14:06:44 +0000.792105][e95] haveEnoughProcessedData
[Link]: 0
[000:048] [2025-10-12 14:06:44 +0000.792240][5b6] The machine model:M2102J20SG
[000:048] [2025-10-12 14:06:44 +0000.792277][5b6] default mode: Set the recording
mode to voice communication to enable HW AEC .
[000:048] [2025-10-12 14:06:44 +0000.792295][5b6] Set the recording mode before
getSetting: 4
[000:048] [2025-10-12 14:06:44 +0000.792308][5b6] Set the recording mode after
getSetting: 1
[000:097] [2025-10-12 14:06:44 +0000.841717][5b6] StartRecording finished.
[000:098] [2025-10-12 14:06:44 +0000.842784][5b6] audio: start the audio mic
checker timer.
[000:099] [2025-10-12 14:06:44 +0000.843265][5b6] machine model :poco
[000:099] [2025-10-12 14:06:44 +0000.843307][5b6] Support this machine model :poco
[000:101] [2025-10-12 14:06:44 +0000.845552][5b6] global inited! current sdk
version: 07-20-936c45f
[000:173] [2025-10-12 14:06:44 +0000.917530][e96] webrtc device:Handle the data
from samplesPerSec recording sample rate:48000 nSamples:480 nBytesPerSample:#
nChannels:#
[000:173] [2025-10-12 14:06:44 +0000.917598][e96] _deviceSampleRate:48000
[000:175] [2025-10-12 14:06:44 +0000.919844][e95] Run AGC when audioType = 0
[000:175] [2025-10-12 14:06:44 +0000.919929][e95]
AudioDeviceDataHandler::MixAndSendOutFrame
[001:804] [2025-10-12 14:06:46 +0000.548168][e95] haveEnoughProcessedData
[Link]: 0
[002:175] [2025-10-12 14:06:46 +0000.919639][e95] Run AGC when audioType = 0
[003:539] [2025-10-12 14:06:48 +0000.283128][e95] haveEnoughProcessedData
[Link]: 20
[004:103] [2025-10-12 14:06:48 +0000.847331][e8b]
monitorTime:4005totalDuration:3940
[004:175] [2025-10-12 14:06:48 +0000.919085][e95] Run AGC when audioType = 0
[004:175] [2025-10-12 14:06:48 +0000.919245][e95]
AudioDeviceDataHandler::MixAndSendOutFrame
[004:927] [2025-10-12 14:06:49 +0000.671997][5b6]
Java_com_xiaomi_recordmediaprocess_MediaEffectCamera_DestructMediaEffectCameraJni:
[004:928] [2025-10-12 14:06:49 +0000.672211][5b6] ~MediaFilterCamera time:62350036
enter.
[004:928] [2025-10-12 14:06:49 +0000.672262][5b6] StopPullFrameAndWriteMp4
time:62350036 enter.
[004:929] [2025-10-12 14:06:49 +0000.673085][e8f] stop recording
[004:929] [2025-10-12 14:06:49 +0000.673129][e8f] we have stopped recording before
[004:929] [2025-10-12 14:06:49 +0000.673208][5b6] StopPullFrameAndWriteMp4 leave.
expire time = 1 ms
[004:931] [2025-10-12 14:06:49 +0000.675302][5b6] DestroyPipelineAndFilters
time:62350039 enter.
[004:931] [2025-10-12 14:06:49 +0000.675450][5b6] DestroyPipelineAndFilters leave.
expire time = 0 ms
[004:931] [2025-10-12 14:06:49 +0000.675487][5b6] AppDeviceManagerStopMic
[004:931] [2025-10-12 14:06:49 +0000.675547][5b6] AppDeviceManagerStopMic::mic
status is on
[004:931] [2025-10-12 14:06:49 +0000.675580][5b6] Try to stop webrtc device.
[004:931] [2025-10-12 14:06:49 +0000.675614][5b6] Set record state to
[Link]
[004:979] [2025-10-12 14:06:49 +0000.723483][5b6] Try to destory the
[Link]
[005:213] [2025-10-12 14:06:49 +0000.957952][5b6] DestroyAudioRecorder:
[005:214] [2025-10-12 14:06:49 +0000.958151][5b6] Cleanup the buffer queue in the
recorder.
[0